createdAt,value
2023-05-14T00:00:59.470Z,1.40
2023-05-14T00:03:50.190Z,2.70
2023-05-14T00:06:27.727Z,2.90
2023-05-14T00:12:31.195Z,1.60
2023-05-14T00:23:18.125Z,1.40
2023-05-14T00:29:42.518Z,1.60
2023-05-14T00:32:40.184Z,1.50
2023-05-14T00:39:22.655Z,1.60
2023-05-14T09:02:11.781Z,2.00
2023-05-14T09:12:23.815Z,2.30
2023-05-14T09:15:35.979Z,2.30
2023-05-14T09:21:55.352Z,2.10
2023-05-14T09:25:14.172Z,2.60
2023-05-14T09:28:07.921Z,2.30
2023-05-14T09:31:07.727Z,2.10
2023-05-14T09:34:07.398Z,2.10
2023-05-14T09:37:04.817Z,2.00
2023-05-14T09:40:10.644Z,2.40
2023-05-14T09:43:08.146Z,1.60
2023-05-14T09:45:42.922Z,1.80
2023-05-14T09:48:26.201Z,2.20
2023-05-14T09:52:26.593Z,2.20
2023-05-14T09:55:22.989Z,2.10
2023-05-14T09:58:07.176Z,2.80
2023-05-14T10:00:58.336Z,2.10
2023-05-14T10:03:41.933Z,2.30
2023-05-14T10:10:31.411Z,1.90
2023-05-14T10:13:16.870Z,2.20
2023-05-14T10:16:58.906Z,2.30
2023-05-14T10:19:41.811Z,2.40
2023-05-14T10:22:27.834Z,2.20
2023-05-14T10:25:31.746Z,2.20
2023-05-14T10:28:15.169Z,3.40
2023-05-14T10:31:10.827Z,2.00
2023-05-14T11:43:49.180Z,1.90
2023-05-14T11:48:53.791Z,2.00
2023-05-14T12:01:05.242Z,1.40
2023-05-14T12:24:24.676Z,1.50
2023-05-14T12:27:10.070Z,1.60
2023-05-14T12:30:27.428Z,1.40
2023-05-14T12:33:19.686Z,2.00
2023-05-14T12:41:53.017Z,2.20
2023-05-14T12:47:41.961Z,2.20
2023-05-14T12:50:48.803Z,1.80
2023-05-14T12:54:05.429Z,1.60
2023-05-14T13:01:37.344Z,1.90
2023-05-14T13:04:23.243Z,2.60
2023-05-14T13:07:44.966Z,2.20
2023-05-14T13:15:00.178Z,1.80
2023-05-14T13:22:14.993Z,2.00
2023-05-14T13:24:52.337Z,1.70
2023-05-14T13:27:41.183Z,2.10
2023-05-14T13:31:11.418Z,2.20
2023-05-14T13:35:10.897Z,2.00
2023-05-14T13:38:12.132Z,1.90
2023-05-14T13:40:48.075Z,2.10
2023-05-14T13:44:25.255Z,2.10
2023-05-14T13:47:18.148Z,2.20
2023-05-14T13:54:22.430Z,2.20
2023-05-14T13:57:09.665Z,2.50
2023-05-14T14:00:00.871Z,2.50
2023-05-14T14:05:48.884Z,2.00
2023-05-14T14:08:24.769Z,1.60
2023-05-14T14:11:03.298Z,2.00
2023-05-14T14:14:12.199Z,1.80
2023-05-14T14:17:15.311Z,1.90
2023-05-14T14:23:50.059Z,2.70
2023-05-14T14:26:41.536Z,2.50
2023-05-14T14:29:24.784Z,1.90
2023-05-14T14:32:40.473Z,1.90
2023-05-14T14:36:01.412Z,2.10
2023-05-14T14:43:08.323Z,1.90
2023-05-14T14:45:45.780Z,2.00
2023-05-14T14:48:46.334Z,1.30
2023-05-14T14:51:57.130Z,1.60
2023-05-14T14:54:36.316Z,1.90
2023-05-14T14:57:26.968Z,2.00
2023-05-14T15:00:26.217Z,2.00
2023-05-14T15:03:16.512Z,2.50
2023-05-14T15:05:55.873Z,1.80
2023-05-14T15:08:50.228Z,2.00
2023-05-14T15:20:58.376Z,2.00
2023-05-14T15:24:08.060Z,2.30
2023-05-14T15:26:54.660Z,1.90
2023-05-14T15:29:34.571Z,1.90
2023-05-14T15:32:21.445Z,2.20
2023-05-14T15:35:21.539Z,1.80
2023-05-14T15:41:36.321Z,2.40
2023-05-14T15:48:26.470Z,2.00
2023-05-14T15:55:54.775Z,2.20
2023-05-14T15:58:58.658Z,1.90
2023-05-14T16:06:35.211Z,2.10
2023-05-14T16:09:46.994Z,3.00
2023-05-14T16:13:02.852Z,1.90
2023-05-14T16:15:41.174Z,2.30
2023-05-14T16:19:27.931Z,2.80
2023-05-14T16:22:30.845Z,1.70
2023-05-14T16:25:31.144Z,2.30
2023-05-14T16:29:29.776Z,2.00
2023-05-14T16:37:03.764Z,2.40
2023-05-14T16:39:50.708Z,1.80
2023-05-14T16:42:36.508Z,2.20
2023-05-14T16:45:37.761Z,2.10
2023-05-14T16:54:14.785Z,2.10
2023-05-14T16:56:57.286Z,2.10
2023-05-14T16:59:57.050Z,2.00
2023-05-14T17:41:33.236Z,2.00
2023-05-14T18:02:13.079Z,4.10
2023-05-14T18:14:27.961Z,2.50
2023-05-14T18:25:16.145Z,2.40
2023-05-14T18:37:23.638Z,2.80
2023-05-14T18:40:28.700Z,2.40
2023-05-14T18:43:14.394Z,2.10
2023-05-14T18:46:23.485Z,2.40
2023-05-14T19:02:47.119Z,2.10
2023-05-14T19:05:40.003Z,1.90
2023-05-14T19:18:34.480Z,2.10
2023-05-14T19:22:26.774Z,2.60
2023-05-14T19:25:16.008Z,4.40
2023-05-14T19:32:14.333Z,4.20
2023-05-14T19:35:44.357Z,7.30
2023-05-14T19:38:50.184Z,15.60
2023-05-14T19:42:20.507Z,19.80
2023-05-14T19:44:53.704Z,16.70
2023-05-14T19:48:00.376Z,6.70
2023-05-14T19:51:18.293Z,6.30
2023-05-14T19:55:01.829Z,5.00
2023-05-14T19:57:43.107Z,4.60
2023-05-14T20:00:50.301Z,4.50
2023-05-14T20:03:49.217Z,4.80
2023-05-14T20:06:54.551Z,3.40
2023-05-14T20:10:12.303Z,4.30
2023-05-14T20:21:25.374Z,5.00
2023-05-14T20:24:11.586Z,4.40
2023-05-14T20:26:57.822Z,4.00
2023-05-14T20:29:49.840Z,4.10
2023-05-14T20:33:07.818Z,4.30
2023-05-14T20:36:03.127Z,3.40
2023-05-14T20:39:00.175Z,3.30
2023-05-14T20:42:03.847Z,3.90
2023-05-14T20:45:48.040Z,3.80
2023-05-14T20:49:35.596Z,4.20
2023-05-14T20:52:10.107Z,7.60
2023-05-14T20:55:08.495Z,5.70
2023-05-14T20:58:11.262Z,4.30
2023-05-14T21:01:16.084Z,5.00
2023-05-14T21:03:53.982Z,3.80
2023-05-14T21:06:32.291Z,3.90
2023-05-14T21:12:12.207Z,4.10
2023-05-14T21:18:29.642Z,3.80
2023-05-14T21:21:22.854Z,4.10
2023-05-14T21:24:23.993Z,3.60
2023-05-14T21:27:04.386Z,2.40
2023-05-14T21:30:21.591Z,2.50
2023-05-14T21:33:20.537Z,2.30
2023-05-14T21:36:11.299Z,2.50
2023-05-14T21:43:23.206Z,2.60
2023-05-14T21:46:28.389Z,2.50
2023-05-14T21:49:37.292Z,3.40
2023-05-14T21:53:05.250Z,3.90
2023-05-14T21:56:02.518Z,3.40
2023-05-14T21:58:36.173Z,5.50
2023-05-14T22:01:22.212Z,5.20
2023-05-14T22:04:05.076Z,4.70
2023-05-14T22:06:41.899Z,3.00
2023-05-14T22:09:13.096Z,4.90
2023-05-14T22:11:59.273Z,3.60
2023-05-14T22:14:34.467Z,4.30
2023-05-14T22:17:10.585Z,4.70
2023-05-14T22:20:11.932Z,5.60
2023-05-14T22:22:45.404Z,6.10
2023-05-14T22:25:32.925Z,4.80
2023-05-14T22:28:39.102Z,5.00
2023-05-14T22:31:25.798Z,5.00
2023-05-14T22:33:59.361Z,4.90
2023-05-14T22:37:02.914Z,4.80
2023-05-14T22:43:49.231Z,5.00
2023-05-14T22:47:00.613Z,5.40
2023-05-14T22:49:44.846Z,4.70
2023-05-14T22:52:26.017Z,5.00
2023-05-14T22:57:55.858Z,5.10
2023-05-14T23:00:49.875Z,4.50
2023-05-14T23:06:20.118Z,5.30
2023-05-14T23:09:05.247Z,5.40
2023-05-14T23:15:02.467Z,5.30
2023-05-14T23:17:45.092Z,5.10
2023-05-14T23:20:43.555Z,5.40
2023-05-14T23:23:25.101Z,5.10
2023-05-14T23:29:53.824Z,4.80
2023-05-14T23:32:32.361Z,6.00
2023-05-14T23:35:11.772Z,5.50
2023-05-14T23:37:49.256Z,5.60
2023-05-14T23:40:37.251Z,5.70
2023-05-14T23:43:11.539Z,5.90
2023-05-14T23:46:04.153Z,5.90
2023-05-14T23:48:35.355Z,5.70
2023-05-14T23:51:14.306Z,5.40
2023-05-14T23:54:08.041Z,6.00
2023-05-14T23:56:43.869Z,6.00
2023-05-14T23:59:28.157Z,5.80
